Historique des mesures à Cassis (13260), France
Quotidien Résumé Fevrier 5, 2018 Unités:  Métrique    US   Métrique/US
« Précédent (Jour)
Suivant (Jour) »
Quotidien Hebdomadaire Mensuel Annuel Période au choix
  Maximum: Minimum: Moyenne:
Température: TemperatureC °C 7.3 °C 9.1 °C
Point de rosée: DewpointC °C 4.0 °C 5 °C
Humidité: Humidity % 69 % 72 %
Vitesse du vent: 0 km/h 0 km/h 6.9 km/h
Rafales: 0 km/h - -
Vent:- - East
Pression: PressurehPa hPa 1008.7 hPa -
Précipitations: 7.9 mm    
Historical Graphs
 
 
Mesures pour : Fevrier 5, 2018
Heure Temperature Point de rosée Pression Vent Vitesse du vent Rafales Humidité Pluie (par heure) Conditions
TemperatureC °C DewpointC °C PressurehPa hPa Calm     Humidity % HourlyPrecipMM mm SoftwareType W/m2
00:12 9.4 °C 4.0 °C 1010.7 hPa East 8 km/h 10.3 km/h 69 % 0.0 mm open2300-1.11 W/m2
01:12 9.6 °C 4.2 °C 1011.1 hPa SSE 7.6 km/h 8.9 km/h 69 % 0.0 mm open2300-1.11 W/m2
02:12 9.8 °C 4.4 °C 1010.4 hPa Calm   4.7 km/h 69 % 0.0 mm open2300-1.11 W/m2
03:12 9.4 °C 4.8 °C 1010.7 hPa ENE 8 km/h 8 km/h 73 % 0.0 mm open2300-1.11 W/m2
04:12 8.6 °C 5.2 °C 1010.4 hPa SE 2.3 km/h 4.2 km/h 79 % 2.0 mm open2300-1.11 W/m2
05:12 8.0 °C 5.1 °C 1010.7 hPa Calm   10.3 km/h 82 % 3.0 mm open2300-1.11 W/m2
06:12 7.8 °C 4.8 °C 1010.0 hPa Calm   9.8 km/h 81 % 0.5 mm open2300-1.11 W/m2
07:12 7.5 °C 4.6 °C 1010.0 hPa ESE 6.9 km/h 19.2 km/h 82 % 0.5 mm open2300-1.11 W/m2
08:12 7.3 °C 4.4 °C 1010.0 hPa SE 8 km/h 8 km/h 82 % 0.5 mm open2300-1.11 W/m2
09:12 8.1 °C 5.2 °C 1010.0 hPa Calm   4.7 km/h 82 % 0.5 mm open2300-1.11 W/m2
10:12 8.1 °C 4.9 °C 1010.7 hPa NE 10.3 km/h 14 km/h 80 % 0.0 mm open2300-1.11 W/m2
11:12 8.6 °C 5.3 °C 1010.7 hPa East 11.6 km/h 12.2 km/h 80 % 0.0 mm open2300-1.11 W/m2
12:12 9.9 °C 5.4 °C 1010.7 hPa ESE 9.3 km/h 20.9 km/h 74 % 0.0 mm open2300-1.11 W/m2
13:12 11.0 °C 6.4 °C 1009.7 hPa ESE 9.8 km/h 15 km/h 73 % 0.0 mm open2300-1.11 W/m2
14:12 11.4 °C 6.2 °C 1009.0 hPa ESE 13.2 km/h 13.2 km/h 70 % 0.0 mm open2300-1.11 W/m2
15:12 11.9 °C 6.4 °C 1008.7 hPa NNE 14.5 km/h 24.8 km/h 69 % 0.0 mm open2300-1.11 W/m2
16:12 11.3 °C 5.8 °C 1008.7 hPa East 10.3 km/h 15 km/h 69 % 0.0 mm open2300-1.11 W/m2
17:12 10.8 °C 5.4 °C 1008.7 hPa SE 21.6 km/h 21.6 km/h 69 % 0.0 mm open2300-1.11 W/m2
18:12 9.5 °C 5.8 °C 1008.7 hPa Calm   5.1 km/h 78 % 0.5 mm open2300-1.11 W/m2
19:12 9.8 °C 6.1 °C 1009.0 hPa SE 5.1 km/h 9.8 km/h 78 % 0.0 mm open2300-1.11 W/m2
20:12 9.9 °C 5.7 °C 1009.4 hPa ENE 2.3 km/h 5.6 km/h 75 % 0.0 mm open2300-1.11 W/m2
21:12 9.9 °C 5.4 °C 1009.0 hPa ESE 5.1 km/h 9.8 km/h 74 % 0.0 mm open2300-1.11 W/m2
22:12 10.1 °C 5.3 °C 1009.0 hPa East 9.8 km/h 10.9 km/h 72 % 0.0 mm open2300-1.11 W/m2
23:12 10.1 °C 5.3 °C 1008.7 hPa East 10.3 km/h 16.3 km/h 72 % 0.0 mm open2300-1.11 W/m2
Observations météo à CASSIS
WU-History script by Weather Underground - 1 mb